createdAt,value
2018-07-27T00:02:16.683Z,70.43
2018-07-27T00:04:45.251Z,70.86
2018-07-27T00:07:14.255Z,70.66
2018-07-27T00:09:42.685Z,71.41
2018-07-27T00:12:11.153Z,70.66
2018-07-27T00:14:39.680Z,71.19
2018-07-27T00:17:08.112Z,71.03
2018-07-27T00:19:36.552Z,72.42
2018-07-27T00:22:04.988Z,72.97
2018-07-27T00:24:33.612Z,72.25
2018-07-27T00:27:02.046Z,74.09
2018-07-27T00:29:30.448Z,72.67
2018-07-27T00:31:58.956Z,72.50
2018-07-27T00:34:27.339Z,73.62
2018-07-27T00:36:55.907Z,73.12
2018-07-27T00:39:24.304Z,72.54
2018-07-27T00:41:52.720Z,71.28
2018-07-27T00:44:21.274Z,70.86
2018-07-27T00:46:49.692Z,71.32
2018-07-27T00:49:18.355Z,72.63
2018-07-27T00:51:47.691Z,72.36
2018-07-27T00:54:16.103Z,72.46
2018-07-27T00:56:44.568Z,72.49
2018-07-27T00:59:12.999Z,72.94
2018-07-27T01:01:41.407Z,73.39
2018-07-27T01:04:09.853Z,73.35
2018-07-27T01:06:38.310Z,73.43
2018-07-27T01:09:08.724Z,72.52
2018-07-27T01:11:37.175Z,73.40
2018-07-27T01:14:05.658Z,73.55
2018-07-27T01:16:34.087Z,73.78
2018-07-27T01:19:02.515Z,74.24
2018-07-27T01:21:30.971Z,75.30
2018-07-27T01:23:59.503Z,75.73
2018-07-27T01:26:27.924Z,75.01
2018-07-27T01:28:56.344Z,76.27
2018-07-27T01:31:24.876Z,75.31
2018-07-27T01:33:53.559Z,75.77
2018-07-27T01:36:22.139Z,76.28
2018-07-27T01:38:50.546Z,75.51
2018-07-27T01:41:19.011Z,74.93
2018-07-27T01:43:47.446Z,74.98
2018-07-27T01:46:15.996Z,74.50
2018-07-27T01:48:44.407Z,74.77
2018-07-27T01:51:12.845Z,74.67
2018-07-27T01:53:41.792Z,76.07
2018-07-27T01:56:10.261Z,76.29
2018-07-27T01:58:38.729Z,75.67
2018-07-27T02:01:07.198Z,77.14
2018-07-27T02:03:36.311Z,78.12
2018-07-27T02:06:05.166Z,77.90
2018-07-27T02:08:33.607Z,76.77
2018-07-27T02:11:02.037Z,76.20
2018-07-27T02:13:30.476Z,75.96
2018-07-27T02:15:59.028Z,76.70
2018-07-27T02:18:27.541Z,76.37
2018-07-27T02:20:55.953Z,77.26
2018-07-27T02:23:24.377Z,76.67
2018-07-27T02:25:52.787Z,76.69
2018-07-27T02:28:21.207Z,75.25
2018-07-27T02:30:49.616Z,74.84
2018-07-27T02:33:18.055Z,74.22
2018-07-27T02:35:46.461Z,75.03
2018-07-27T02:38:14.894Z,75.01
2018-07-27T02:40:43.377Z,75.70
2018-07-27T02:43:11.823Z,76.77
2018-07-27T02:45:40.254Z,74.93
2018-07-27T02:48:08.727Z,75.06
2018-07-27T02:50:37.150Z,75.68
2018-07-27T02:53:05.607Z,75.30
2018-07-27T02:55:34.048Z,74.98
2018-07-27T02:58:02.971Z,75.54
2018-07-27T03:00:31.388Z,76.71
2018-07-27T03:02:59.864Z,74.64
2018-07-27T03:05:28.376Z,75.80
2018-07-27T03:07:57.009Z,76.15
2018-07-27T03:10:25.453Z,75.76
2018-07-27T03:12:53.870Z,76.37
2018-07-27T03:15:22.999Z,77.25
2018-07-27T03:17:51.727Z,77.56
2018-07-27T03:20:20.746Z,76.96
2018-07-27T03:22:49.196Z,77.30
2018-07-27T03:25:17.608Z,77.36
2018-07-27T03:27:46.066Z,77.56
2018-07-27T03:30:15.305Z,78.75
2018-07-27T03:32:44.582Z,78.00
2018-07-27T03:35:13.350Z,77.40
2018-07-27T03:37:42.500Z,76.94
2018-07-27T03:40:12.061Z,76.87
2018-07-27T03:42:40.829Z,76.64
2018-07-27T03:45:10.237Z,76.75
2018-07-27T03:47:38.968Z,76.87
2018-07-27T03:50:07.682Z,76.15
2018-07-27T03:52:36.215Z,75.99
2018-07-27T03:55:05.111Z,75.77
2018-07-27T03:57:33.785Z,76.86
2018-07-27T04:00:02.430Z,77.08
2018-07-27T04:02:31.196Z,76.79
2018-07-27T04:04:59.818Z,77.15
2018-07-27T04:07:29.143Z,76.48
2018-07-27T04:09:58.437Z,76.55
2018-07-27T04:12:27.508Z,77.51
2018-07-27T04:14:56.480Z,77.40
2018-07-27T04:17:25.122Z,77.12
2018-07-27T04:19:53.983Z,76.83
2018-07-27T04:22:23.423Z,77.71
2018-07-27T04:24:52.752Z,77.04
2018-07-27T04:27:21.267Z,77.15
2018-07-27T04:29:49.982Z,76.59
2018-07-27T04:32:18.562Z,76.30
2018-07-27T04:34:48.000Z,75.13
2018-07-27T04:37:16.672Z,74.75
2018-07-27T04:39:45.476Z,74.81
2018-07-27T04:42:15.029Z,76.67
2018-07-27T04:44:44.715Z,75.96
2018-07-27T04:47:13.194Z,74.11
2018-07-27T04:49:42.559Z,74.72
2018-07-27T04:52:11.221Z,75.00
2018-07-27T04:54:40.574Z,77.31
2018-07-27T04:57:09.044Z,77.65
2018-07-27T04:59:37.755Z,76.16
2018-07-27T05:02:06.648Z,77.14
2018-07-27T05:04:35.243Z,75.14
2018-07-27T05:07:03.865Z,75.93
2018-07-27T05:09:32.397Z,76.01
2018-07-27T05:12:00.904Z,76.06
2018-07-27T05:14:29.440Z,74.84
2018-07-27T05:16:57.898Z,74.24
2018-07-27T05:19:26.466Z,73.84
2018-07-27T05:21:55.039Z,73.82
2018-07-27T05:24:23.536Z,71.89
2018-07-27T05:26:52.128Z,72.20
2018-07-27T05:29:20.626Z,71.17
2018-07-27T05:31:49.449Z,70.39
2018-07-27T05:34:18.112Z,67.92
2018-07-27T05:36:46.671Z,66.93
2018-07-27T05:39:15.241Z,65.38
2018-07-27T05:41:43.941Z,61.45
2018-07-27T05:44:12.396Z,59.99
2018-07-27T05:46:40.956Z,59.39
2018-07-27T05:49:09.578Z,60.33
2018-07-27T05:51:38.161Z,62.17
2018-07-27T05:54:06.871Z,61.48
2018-07-27T05:56:35.539Z,60.31
2018-07-27T05:59:04.147Z,59.69
2018-07-27T06:01:32.977Z,59.92
2018-07-27T06:04:01.954Z,58.61
2018-07-27T06:06:30.431Z,59.97
2018-07-27T06:08:59.044Z,59.62
2018-07-27T06:11:28.143Z,58.88
2018-07-27T06:13:56.655Z,58.37
2018-07-27T06:16:25.234Z,59.50
2018-07-27T06:18:54.014Z,56.88
2018-07-27T06:21:22.546Z,58.48
2018-07-27T06:23:51.047Z,56.14
2018-07-27T06:26:19.683Z,56.85
2018-07-27T06:28:48.271Z,56.21
2018-07-27T06:31:17.479Z,51.66
2018-07-27T06:33:46.111Z,52.43
2018-07-27T06:36:15.074Z,52.93
2018-07-27T06:38:43.591Z,50.77
2018-07-27T06:41:12.148Z,49.83
2018-07-27T06:43:40.676Z,49.84
2018-07-27T06:46:09.205Z,49.61
2018-07-27T06:48:37.713Z,50.89
2018-07-27T06:51:06.238Z,50.11
2018-07-27T06:53:34.725Z,49.65
2018-07-27T06:56:03.209Z,48.09
2018-07-27T06:58:31.811Z,47.49
2018-07-27T07:01:00.339Z,46.12
2018-07-27T07:03:28.820Z,45.38
2018-07-27T07:05:57.356Z,42.10
2018-07-27T07:08:25.857Z,43.52
2018-07-27T07:10:54.656Z,44.18
2018-07-27T07:13:23.663Z,44.38
2018-07-27T07:15:52.243Z,42.58
2018-07-27T07:18:20.931Z,41.78
2018-07-27T07:20:51.722Z,44.32
2018-07-27T07:23:20.500Z,42.63
2018-07-27T07:25:49.211Z,41.03
2018-07-27T07:28:17.556Z,41.44
2018-07-27T07:30:46.114Z,44.11
2018-07-27T07:33:14.671Z,42.74
2018-07-27T07:35:43.413Z,40.46
2018-07-27T07:38:11.934Z,37.97
2018-07-27T07:40:40.507Z,38.76
2018-07-27T07:43:08.999Z,39.88
2018-07-27T07:45:37.521Z,38.34
2018-07-27T07:48:06.415Z,36.84
2018-07-27T07:50:34.887Z,36.66
2018-07-27T07:53:03.454Z,37.43
2018-07-27T07:55:31.848Z,38.69
2018-07-27T07:58:00.393Z,38.86
2018-07-27T08:00:28.792Z,37.98
2018-07-27T08:02:57.268Z,38.03
2018-07-27T08:05:25.756Z,38.85
2018-07-27T08:07:54.408Z,38.84
2018-07-27T08:10:23.443Z,37.83
2018-07-27T08:12:52.032Z,38.14
2018-07-27T08:15:20.519Z,33.74
2018-07-27T08:17:48.948Z,37.18
2018-07-27T08:20:18.543Z,34.91
2018-07-27T08:22:47.044Z,35.50
2018-07-27T08:25:15.447Z,34.11
2018-07-27T08:27:44.185Z,33.62
2018-07-27T08:30:15.248Z,33.17
2018-07-27T08:32:43.716Z,32.46
2018-07-27T08:35:12.179Z,32.50
2018-07-27T08:37:40.672Z,33.54
2018-07-27T08:40:09.121Z,31.44
2018-07-27T08:42:37.603Z,31.17
2018-07-27T08:45:06.076Z,30.18
2018-07-27T08:47:34.547Z,28.76
2018-07-27T08:50:03.013Z,26.41
2018-07-27T08:52:31.503Z,27.69
2018-07-27T08:54:59.912Z,29.35
2018-07-27T08:57:28.336Z,28.78
2018-07-27T08:59:56.825Z,26.73
2018-07-27T09:02:25.280Z,24.93
2018-07-27T09:04:53.744Z,25.23
2018-07-27T09:07:22.183Z,26.85
2018-07-27T09:09:50.778Z,26.04
2018-07-27T09:12:19.185Z,26.28
2018-07-27T09:14:47.673Z,24.59
2018-07-27T09:17:16.112Z,24.89
2018-07-27T09:19:44.631Z,24.74
2018-07-27T09:22:13.057Z,24.77
2018-07-27T09:24:41.568Z,23.96
2018-07-27T09:27:09.934Z,23.59
2018-07-27T09:29:38.364Z,25.17
2018-07-27T09:32:06.777Z,25.82
2018-07-27T09:34:35.327Z,25.47
2018-07-27T09:37:03.719Z,28.51
2018-07-27T09:39:32.204Z,26.09
2018-07-27T09:42:00.651Z,24.85
2018-07-27T09:44:29.107Z,23.68
2018-07-27T09:46:57.544Z,23.98
2018-07-27T09:49:27.340Z,24.34
2018-07-27T09:51:55.805Z,24.95
2018-07-27T09:54:24.248Z,23.81
2018-07-27T09:56:53.325Z,23.57
2018-07-27T09:59:23.201Z,23.86
2018-07-27T10:01:52.225Z,23.17
2018-07-27T10:04:20.660Z,23.55
2018-07-27T10:06:49.041Z,26.26
2018-07-27T10:09:17.471Z,25.72
2018-07-27T10:11:46.483Z,24.75
2018-07-27T10:14:14.980Z,23.41
2018-07-27T10:16:43.439Z,23.57
2018-07-27T10:19:12.034Z,23.16
2018-07-27T10:21:40.540Z,23.11
2018-07-27T10:24:09.041Z,23.62
2018-07-27T10:26:37.447Z,23.14
2018-07-27T10:29:06.807Z,21.63
2018-07-27T10:31:35.396Z,22.32
2018-07-27T10:34:03.869Z,23.20
2018-07-27T10:36:32.591Z,23.85
2018-07-27T10:39:01.161Z,24.87
2018-07-27T10:41:29.728Z,24.83
2018-07-27T16:28:11.371Z,26.90
2018-07-27T16:32:31.855Z,26.47
2018-07-27T16:35:01.408Z,27.06
2018-07-27T16:37:30.222Z,26.54
2018-07-27T16:40:01.164Z,26.89
2018-07-27T16:42:29.683Z,27.25
2018-07-27T16:44:58.665Z,25.63
2018-07-27T16:47:27.899Z,26.04
2018-07-27T16:49:56.847Z,27.17
2018-07-27T16:52:25.300Z,27.15
2018-07-27T16:54:54.964Z,27.19
2018-07-27T16:57:23.741Z,26.87
2018-07-27T16:59:52.800Z,27.21
2018-07-27T17:02:32.068Z,26.90
2018-07-27T17:07:58.505Z,26.37
2018-07-27T17:13:22.097Z,26.29
2018-07-27T17:16:03.816Z,26.36
2018-07-27T17:18:38.381Z,27.01
2018-07-27T17:21:08.207Z,27.31
2018-07-27T17:23:38.855Z,27.60
2018-07-27T17:26:09.588Z,27.44
2018-07-27T17:28:40.354Z,27.95
2018-07-27T17:31:09.235Z,28.03
2018-07-27T17:34:08.840Z,28.00
2018-07-27T17:36:38.964Z,28.81
2018-07-27T17:39:18.107Z,29.16
2018-07-27T17:41:47.716Z,28.86
2018-07-27T17:44:17.884Z,29.86
2018-07-27T17:46:46.549Z,31.29
2018-07-27T17:49:15.018Z,30.96
2018-07-27T17:51:43.374Z,31.76
2018-07-27T17:54:12.188Z,33.18
2018-07-27T17:56:40.691Z,34.58
2018-07-27T17:59:10.775Z,35.77
2018-07-27T18:01:39.238Z,37.03
2018-07-27T18:04:07.873Z,37.71
2018-07-27T18:06:36.760Z,37.18
2018-07-27T18:09:08.768Z,37.65
2018-07-27T18:11:37.329Z,38.44
2018-07-27T18:14:06.949Z,38.44
2018-07-27T18:16:35.294Z,38.48
2018-07-27T18:19:04.603Z,39.07
2018-07-27T18:21:33.003Z,38.82
2018-07-27T18:24:02.237Z,38.00
2018-07-27T18:26:31.810Z,38.76
2018-07-27T18:29:01.449Z,37.68
2018-07-27T18:31:29.836Z,38.35
2018-07-27T18:33:59.183Z,38.27
2018-07-27T18:36:28.421Z,39.31
2018-07-27T18:38:56.900Z,39.32
2018-07-27T18:41:25.451Z,41.12
2018-07-27T18:43:54.778Z,41.03
2018-07-27T18:46:24.143Z,42.83
2018-07-27T18:48:54.165Z,43.94
2018-07-27T18:51:23.459Z,44.95
2018-07-27T18:53:53.093Z,45.21
2018-07-27T18:56:21.503Z,46.14
2018-07-27T18:58:49.967Z,46.66
2018-07-27T19:01:18.450Z,46.52
2018-07-27T19:03:47.154Z,46.78
2018-07-27T19:06:16.619Z,47.83
2018-07-27T19:08:45.603Z,47.54
2018-07-27T19:11:15.550Z,48.68
2018-07-27T19:13:46.367Z,48.67
2018-07-27T19:16:15.170Z,48.76
2018-07-27T19:18:44.312Z,47.62
2018-07-27T19:21:14.405Z,48.50
2018-07-27T19:23:43.150Z,48.82
2018-07-27T19:26:14.029Z,49.73
2018-07-27T19:28:42.955Z,51.09
2018-07-27T19:31:11.582Z,52.38
2018-07-27T19:33:40.364Z,51.84
2018-07-27T19:36:13.036Z,52.62
2018-07-27T19:38:42.265Z,54.03
2018-07-27T19:41:11.134Z,54.35
2018-07-27T19:43:40.803Z,54.46
2018-07-27T19:46:10.466Z,54.70
2018-07-27T19:48:39.488Z,55.44
2018-07-27T19:51:09.516Z,54.91
2018-07-27T19:53:39.406Z,55.62
2018-07-27T19:56:08.083Z,55.88
2018-07-27T19:58:36.499Z,55.82
2018-07-27T20:01:05.630Z,55.33
2018-07-27T20:03:34.108Z,56.23
2018-07-27T20:06:02.774Z,56.40
2018-07-27T20:08:31.153Z,56.13
2018-07-27T20:10:59.692Z,56.00
2018-07-27T20:13:28.091Z,56.54
2018-07-27T20:15:56.790Z,56.63
2018-07-27T20:18:25.214Z,56.09
2018-07-27T20:20:54.032Z,56.66
2018-07-27T20:23:23.706Z,56.70
2018-07-27T20:25:52.646Z,56.25
2018-07-27T20:28:21.025Z,56.53
2018-07-27T20:30:49.409Z,57.01
2018-07-27T20:33:18.524Z,57.19
2018-07-27T20:35:47.451Z,57.16
2018-07-27T20:38:15.845Z,57.46
2018-07-27T20:40:44.732Z,57.45
2018-07-27T20:43:14.151Z,58.96
2018-07-27T20:45:43.013Z,58.80
2018-07-27T20:48:12.158Z,58.63
2018-07-27T20:50:41.425Z,58.56
2018-07-27T20:53:10.039Z,58.68
2018-07-27T20:55:38.771Z,60.21
2018-07-27T20:58:08.529Z,59.73
2018-07-27T21:00:37.633Z,60.82
2018-07-27T21:03:07.007Z,60.82
2018-07-27T21:05:35.409Z,61.23
2018-07-27T21:08:03.937Z,62.10
2018-07-27T21:10:32.329Z,62.07
2018-07-27T21:13:01.551Z,62.27
2018-07-27T21:15:30.243Z,61.93
2018-07-27T21:17:59.578Z,62.34
2018-07-27T21:20:28.881Z,62.76
2018-07-27T21:22:57.224Z,63.49
2018-07-27T21:25:26.012Z,63.01
2018-07-27T21:27:55.084Z,63.15
2018-07-27T21:30:23.880Z,63.45
2018-07-27T21:32:52.237Z,64.57
2018-07-27T21:35:20.614Z,64.21
2018-07-27T21:37:49.626Z,64.62
2018-07-27T21:40:19.003Z,65.20
2018-07-27T21:42:48.005Z,65.52
2018-07-27T21:45:17.309Z,66.06
2018-07-27T21:47:47.037Z,65.55
2018-07-27T21:50:15.429Z,65.35
2018-07-27T21:52:43.804Z,66.15
2018-07-27T21:55:12.408Z,66.23
2018-07-27T21:57:40.730Z,67.65
2018-07-27T22:00:10.356Z,67.50
2018-07-27T22:02:38.739Z,66.93
2018-07-27T22:05:07.531Z,67.28
2018-07-27T22:07:36.334Z,66.57
2018-07-27T22:10:05.211Z,66.53
2018-07-27T22:12:33.781Z,66.83
2018-07-27T22:15:02.517Z,67.18
2018-07-27T22:17:31.183Z,67.91
2018-07-27T22:20:01.320Z,68.50
2018-07-27T22:22:31.001Z,67.99
2018-07-27T22:24:59.840Z,68.01
2018-07-27T22:27:28.489Z,69.07
2018-07-27T22:29:56.906Z,68.80
2018-07-27T22:32:25.481Z,69.24
2018-07-27T22:34:53.825Z,69.01
2018-07-27T22:37:22.188Z,68.98
2018-07-27T22:39:51.032Z,68.75
2018-07-27T22:42:19.778Z,68.16
2018-07-27T22:44:48.180Z,67.46
2018-07-27T22:47:16.561Z,68.38
2018-07-27T22:49:45.285Z,68.40
2018-07-27T22:52:15.065Z,69.50
2018-07-27T22:54:44.225Z,69.10
2018-07-27T22:57:15.148Z,69.26
2018-07-27T22:59:43.925Z,70.83
2018-07-27T23:02:13.285Z,71.42
2018-07-27T23:04:43.712Z,71.96
2018-07-27T23:07:12.414Z,72.72
2018-07-27T23:09:41.316Z,71.83
2018-07-27T23:12:09.668Z,71.68
2018-07-27T23:14:39.137Z,70.78
2018-07-27T23:17:07.954Z,71.87
2018-07-27T23:19:37.202Z,71.29
2018-07-27T23:22:05.599Z,71.15
2018-07-27T23:24:34.676Z,71.83
2018-07-27T23:27:03.542Z,71.26
2018-07-27T23:29:32.016Z,71.79
2018-07-27T23:32:00.720Z,71.54
2018-07-27T23:34:29.775Z,71.18
2018-07-27T23:36:58.719Z,72.22
2018-07-27T23:39:27.112Z,72.51
2018-07-27T23:41:56.287Z,72.35
2018-07-27T23:44:24.624Z,72.91
2018-07-27T23:46:53.567Z,73.72
2018-07-27T23:49:23.368Z,72.60
2018-07-27T23:51:52.263Z,72.59
2018-07-27T23:54:20.886Z,73.82
2018-07-27T23:56:49.728Z,74.71
2018-07-27T23:59:19.047Z,74.88
